Latest Weather Observations for Giles*

IDD60801

Issued at 7:05 pm CST Thursday 18 September 2014 (issued every 30 minutes, with the page automatically refreshed every 10 minutes)

About weather observations | Map of weather stations | Latest weather observations for NT | Other Formats
Station Details ID: 013017 Name: GILES METEOROLOGICAL OFFICE Lat: -25.03 Lon: 128.30 Height: 598.0 m
Data from the previous 72 hours. | See also: Recent months at Giles*

* Giles observations are collected in the South Australia time zone, which includes daylight saving in the summer period. Therefore, Rain since 9am value is with respect to South Australia local time.

Date/Time
CST
Temp
°C
App
Temp
°C
Dew
Point
Rel
Hum
%
Delta-T
°C
Wind Press
QNH
hPa
Press
MSL
hPa
Rain
since 9 am
mm
Dir
 
Spd
km/h
Gust
km/h
Spd
kts
Gust
kts
18/07:00pm 28.1 20.6 -1.6 14 14.0 SSE 28 43 15 23 1015.3 - 0.0
18/06:47pm 28.7 21.1 -2.3 13 14.5 S 28 41 15 22 1014.9 - 0.0
18/06:30pm 31.5 27.0 -6.5 8 16.9 W 9 17 5 9 1014.6 - 0.0
18/06:00pm 32.6 25.8 -12.2 5 18.3 WNW 19 28 10 15 1014.3 1011.9 0.0
18/05:30pm 33.2 26.9 -10.1 5 18.4 WNW 17 26 9 14 1014.2 - 0.0
18/05:00pm 33.6 28.0 -10.6 5 18.7 W 13 20 7 11 1014.0 - 0.0
18/04:30pm 32.8 25.7 -14.1 4 18.6 NW 20 32 11 17 1014.3 - 0.0
18/04:00pm 33.6 27.2 -11.5 5 18.8 WNW 17 26 9 14 1014.3 - 0.0
18/03:30pm 34.9 28.3 -15.0 3 19.9 NW 17 39 9 21 1014.5 - 0.0
18/03:00pm 33.0 27.2 -8.7 6 18.1 NNW 15 28 8 15 1014.7 1012.3 0.0
18/02:30pm 33.3 25.3 -10.5 5 18.5 N 26 41 14 22 1015.1 - 0.0
18/02:00pm 32.7 24.9 -7.9 7 17.8 N 26 35 14 19 1015.7 - 0.0
18/01:30pm 32.5 23.3 -8.0 7 17.7 N 33 46 18 25 1016.2 - 0.0
18/01:00pm 31.7 23.1 -7.8 7 17.2 N 30 41 16 22 1016.7 - 0.0
18/12:30pm 30.2 21.1 -6.9 8 16.2 N 33 46 18 25 1017.2 - 0.0
18/12:00pm 28.9 20.0 -5.4 10 15.2 N 33 44 18 24 1017.8 1015.4 0.0
18/11:30am 28.7 18.5 -7.3 9 15.4 N 39 48 21 26 1018.1 - 0.0
18/11:00am 28.9 19.9 -6.6 9 15.4 NNE 33 46 18 25 1018.1 - 0.0
18/10:30am 27.1 17.5 -4.4 12 14.0 NNE 37 52 20 28 1018.4 - 0.0
18/10:00am 26.6 15.7 -6.5 11 14.1 NNE 43 56 23 30 1018.3 - 0.0
18/09:50am 26.9 16.8 -6.1 11 14.2 NNE 39 57 21 31 1018.2 - 0.0
18/09:30am 27.0 17.6 -6.3 11 14.3 NNE 35 50 19 27 1017.9 - 0.0
18/09:13am 26.9 19.0 -5.0 12 14.0 NNE 28 46 15 25 1018.4 - 0.0
18/09:00am 26.8 20.1 -4.2 13 13.8 NNE 22 33 12 18 1018.5 1016.2 0.0
18/08:30am 23.9 20.1 -1.1 19 11.5 ESE 9 13 5 7 1018.6 - 0.0
18/08:00am 21.7 16.8 -0.7 22 10.2 SE 15 20 8 11 1018.3 - 0.0
18/07:30am 21.1 16.2 -0.7 23 9.9 SE 15 20 8 11 1018.0 - 0.0
18/07:00am 20.5 15.1 -1.2 23 9.7 ESE 17 20 9 11 1017.8 - 0.0
18/06:30am 20.8 15.4 -1.0 23 9.8 E 17 24 9 13 1017.8 - 0.0
18/06:00am 20.7 15.4 -0.4 24 9.6 E 17 20 9 11 1017.5 1015.1 0.0
18/05:30am 20.8 15.1 -1.0 23 9.8 E 19 24 10 13 1017.2 - 0.0
18/05:00am 17.2 14.0 0.9 33 7.4 ESE 7 11 4 6 1017.4 - 0.0
18/04:30am 17.8 14.6 0.9 32 7.7 ESE 7 9 4 5 1017.4 - 0.0
18/04:00am 19.2 15.6 0.7 29 8.5 ENE 9 15 5 8 1017.1 - 0.0
18/03:30am 19.6 14.7 -0.3 26 9.0 E 15 19 8 10 1017.2 - 0.0
18/03:00am 19.1 13.8 -0.9 26 8.9 E 17 20 9 11 1017.1 1014.8 0.0
18/02:30am 20.5 15.1 -1.2 23 9.7 E 17 20 9 11 1017.4 - 0.0
18/02:00am 21.4 16.1 -0.9 22 10.1 E 17 22 9 12 1017.7 - 0.0
18/01:30am 21.9 16.2 -1.0 21 10.4 E 19 24 10 13 1017.9 - 0.0
18/01:00am 22.3 15.9 -1.4 20 10.7 E 22 32 12 17 1018.1 - 0.0
18/12:30am 21.3 15.5 -1.5 21 10.2 E 19 22 10 12 1018.7 - 0.0
18/12:00am 20.9 14.9 -1.6 22 10.0 E 20 24 11 13 1018.7 1016.4 0.0
 
Date/Time
CST
Temp
°C
App
Temp
°C
Dew
Point
Rel
Hum
%
Delta-T
°C
Wind Press
QNH
hPa
Press
MSL
hPa
Rain
since 9 am
mm
Dir
 
Spd
km/h
Gust
km/h
Spd
kts
Gust
kts
17/11:30pm 21.7 15.7 -1.9 20 10.5 E 20 28 11 15 1018.8 - 0.0
17/11:00pm 21.2 15.7 -2.2 20 10.3 E 17 22 9 12 1019.0 - 0.0
17/10:30pm 21.6 15.6 -3.0 19 10.7 E 19 22 10 12 1019.2 - 0.0
17/10:00pm 21.5 16.3 -2.8 19 10.6 E 15 19 8 10 1019.2 - 0.0
17/09:30pm 21.8 16.1 -3.4 18 10.9 E 17 20 9 11 1018.8 - 0.0
17/09:00pm 23.3 17.6 -3.4 16 11.7 E 17 19 9 10 1018.5 1016.2 0.0
17/08:30pm 22.7 17.8 -3.5 17 11.4 ESE 13 15 7 8 1018.4 - 0.0
17/08:00pm 25.1 20.2 -3.4 15 12.7 E 13 15 7 8 1018.0 - 0.0
17/07:30pm 26.0 21.7 -2.0 15 12.9 ENE 11 13 6 7 1017.7 - 0.0
17/07:00pm 27.1 23.2 -1.5 15 13.4 NE 9 13 5 7 1017.5 - 0.0
17/06:30pm 28.4 24.4 -2.2 13 14.3 NNE 9 13 5 7 1017.1 - 0.0
17/06:00pm 29.1 25.0 -2.7 12 14.8 E 9 17 5 9 1017.0 1014.7 0.0
17/05:30pm 29.6 24.9 -5.3 10 15.6 ENE 11 17 6 9 1016.8 - 0.0
17/05:00pm 29.4 26.3 -2.8 12 15.0 SSE 4 7 2 4 1016.6 - 0.0
17/04:30pm 29.4 25.0 -2.8 12 15.0 NNE 11 20 6 11 1016.6 - 0.0
17/04:00pm 31.7 26.5 -6.5 8 17.0 NNE 13 24 7 13 1016.5 - 0.0
17/03:30pm 29.9 24.3 -6.7 9 16.0 NNW 15 30 8 16 1016.7 - 0.0
17/03:00pm 30.0 25.0 -4.1 10 15.6 NE 13 24 7 13 1017.0 1014.7 0.0
17/02:30pm 30.0 25.0 -4.6 10 15.7 NNW 13 22 7 12 1017.2 - 0.0
17/02:00pm 28.8 24.9 -1.6 13 14.4 NNE 9 17 5 9 1017.6 - 0.0
17/01:30pm 28.4 22.8 -3.2 12 14.5 ENE 17 26 9 14 1017.9 - 0.0
17/01:00pm 28.7 23.7 -1.5 14 14.3 ENE 15 24 8 13 1018.3 - 0.0
17/12:30pm 26.6 20.2 -1.9 15 13.2 ENE 22 33 12 18 1018.6 - 0.0
17/12:00pm 25.8 19.5 -1.3 16 12.6 ENE 22 33 12 18 1019.0 1016.7 0.0
17/11:30am 25.3 19.0 -0.8 18 12.2 ENE 22 32 12 17 1019.4 - 0.0
17/11:00am 24.7 17.7 -0.5 19 11.8 ENE 26 37 14 20 1019.7 - 0.0
17/10:32am 24.3 16.5 -1.0 18 11.7 E 30 48 16 26 1020.0 - 0.0
17/10:30am 24.5 16.3 -1.0 18 11.8 E 32 48 17 26 1020.0 - 0.0
17/10:13am 24.1 16.3 -0.7 19 11.5 E 30 48 16 26 1020.1 - 0.0
17/10:00am 24.0 15.9 -0.5 19 11.4 E 32 43 17 23 1020.1 - 0.0
17/09:30am 22.6 14.3 -0.4 21 10.6 E 33 48 18 26 1020.0 - 0.0
17/09:00am 21.8 13.1 -0.5 22 10.2 E 35 - 19 - - 1017.5 0.0
17/08:47am 21.3 13.2 -0.4 23 9.9 E 32 52 17 28 1019.7 - 0.0
17/08:30am 20.9 13.3 0.3 25 9.5 E 30 43 16 23 1019.5 - 0.0
17/08:00am 20.1 13.3 0.6 27 9.0 E 26 39 14 21 1019.2 - 0.0
17/07:30am 19.5 12.7 0.5 28 8.7 E 26 37 14 20 1018.9 - 0.0
17/07:00am 19.2 11.9 0.0 27 8.7 ESE 28 35 15 19 1018.8 - 0.0
17/06:30am 19.0 11.7 0.0 28 8.6 ESE 28 37 15 20 1018.6 - 0.0
17/06:00am 19.1 10.9 0.1 28 8.6 E 33 48 18 26 1018.1 1015.8 0.0
17/05:30am 19.5 11.8 0.2 27 8.8 E 30 43 16 23 1018.1 - 0.0
17/05:00am 19.5 11.5 0.2 27 8.8 E 32 44 17 24 1017.9 - 0.0
17/04:30am 19.5 11.5 0.2 27 8.8 ESE 32 48 17 26 1017.9 - 0.0
17/04:00am 19.5 11.5 0.2 27 8.8 ESE 32 41 17 22 1017.9 - 0.0
17/03:30am 19.6 12.4 0.7 28 8.7 SE 28 39 15 21 1018.2 - 0.0
17/03:00am 20.0 12.8 0.4 27 9.0 SE 28 35 15 19 1018.5 1016.2 0.0
17/02:30am 20.1 13.3 0.6 27 9.0 SE 26 39 14 21 1017.9 - 0.0
17/02:00am 20.4 13.2 0.8 27 9.1 SE 28 39 15 21 1018.2 - 0.0
17/01:30am 20.7 12.7 0.3 25 9.4 SE 32 43 17 23 1018.5 - 0.0
17/01:07am 21.0 13.7 0.2 25 9.6 SE 28 46 15 25 1018.6 - 0.0
17/01:00am 20.8 14.0 0.9 26 9.3 SE 26 41 14 22 1019.0 - 0.0
17/12:30am 20.5 14.8 0.6 26 9.2 SSE 20 28 11 15 1019.3 - 0.0
17/12:00am 21.0 14.9 0.2 25 9.6 SSE 22 32 12 17 1019.3 1016.9 0.0
 
Date/Time
CST
Temp
°C
App
Temp
°C
Dew
Point
Rel
Hum
%
Delta-T
°C
Wind Press
QNH
hPa
Press
MSL
hPa
Rain
since 9 am
mm
Dir
 
Spd
km/h
Gust
km/h
Spd
kts
Gust
kts
16/11:30pm 21.4 15.6 0.2 24 9.8 SE 20 28 11 15 1018.9 - 0.0
16/11:00pm 22.2 15.3 0.0 23 10.3 SE 26 39 14 21 1018.6 - 0.0
16/10:30pm 22.9 15.5 -0.5 21 10.8 SE 28 39 15 21 1018.1 - 0.0
16/10:00pm 23.7 14.9 -1.1 19 11.4 SSE 35 50 19 27 1017.6 - 0.0
16/09:35pm 24.1 15.8 -1.4 18 11.7 S 32 50 17 27 1017.6 - 0.0
16/09:30pm 24.6 15.3 -2.4 16 12.2 SSE 37 50 20 27 1017.5 - 0.0
16/09:00pm 25.6 17.4 -4.0 14 13.1 SSE 30 46 16 25 1016.7 1014.4 0.0
16/08:30pm 26.7 18.4 -5.0 12 13.9 S 30 44 16 24 1016.1 - 0.0
16/08:24pm 26.7 18.8 -4.4 12 13.8 S 28 46 15 25 1016.0 - 0.0
16/08:00pm 27.6 19.6 -6.0 10 14.6 S 28 37 15 20 1015.4 - 0.0
16/07:57pm 27.7 19.6 -6.9 10 14.8 S 28 35 15 19 1015.4 - 0.0
16/07:30pm 27.5 23.3 -4.1 12 14.2 SSE 9 11 5 6 1014.6 - 0.0
16/07:00pm 28.3 24.3 -2.4 13 14.3 SSE 9 11 5 6 1014.3 - 0.0
16/06:30pm 29.8 25.6 -7.6 8 16.1 SSW 7 11 4 6 1014.2 - 0.0
16/06:00pm 30.7 26.6 -6.2 9 16.4 WSW 7 13 4 7 1013.9 1011.5 0.0
16/05:30pm 30.9 28.3 -5.0 9 16.3 CALM 0 6 0 3 1013.9 - 0.0
16/05:00pm 31.2 26.6 -7.6 7 16.9 NW 9 15 5 8 1013.7 - 0.0
16/04:30pm 31.4 27.4 -8.1 7 17.1 NNE 6 15 3 8 1013.7 - 0.0
16/04:00pm 32.0 26.6 -8.5 7 17.5 ENE 13 20 7 11 1013.6 - 0.0
16/03:30pm 32.1 26.8 -7.4 7 17.4 N 13 19 7 10 1014.2 - 0.0
16/03:00pm 32.6 27.1 -9.7 6 18.0 N 13 24 7 13 1014.5 1012.1 0.0
16/02:30pm 31.0 25.2 -8.4 7 16.9 N 15 26 8 14 1014.8 - 0.0
16/02:00pm 31.0 24.3 -7.7 7 16.8 NNE 20 32 11 17 1015.3 - 0.0
16/01:30pm 29.9 23.3 -7.3 8 16.1 N 20 28 11 15 1015.8 - 0.0
16/01:00pm 30.1 22.4 -6.6 9 16.1 N 26 37 14 20 1016.3 - 0.0
16/12:30pm 29.1 21.1 -5.3 10 15.3 NNE 28 37 15 20 1016.6 - 0.0
16/12:00pm 28.6 21.3 -5.8 10 15.1 N 24 32 13 17 1017.2 1014.9 0.0
16/11:30am 28.0 22.3 -3.8 12 14.4 NNE 17 26 9 14 1017.8 - 0.0
16/11:00am 26.9 21.3 -3.0 14 13.6 ENE 17 28 9 15 1018.0 - 0.0
16/10:30am 26.0 20.0 -1.6 16 12.8 ENE 20 30 11 16 1018.3 - 0.0
16/10:00am 24.9 18.9 -1.7 17 12.2 ENE 20 30 11 16 1018.6 - 0.0
16/09:30am 23.5 17.6 -2.4 17 11.6 E 19 26 10 14 1018.7 - 0.0
16/09:00am 21.8 16.1 -3.8 17 11.0 E 17 22 9 12 1018.8 1016.5 0.0
16/08:30am 19.9 14.2 -3.8 20 10.0 ESE 17 22 9 12 1018.5 - 0.0
16/08:00am 17.3 12.9 -2.6 25 8.4 ENE 11 15 6 8 1018.1 - 0.0
16/07:30am 15.8 12.3 -1.2 31 7.3 NE 7 15 4 8 1018.2 - 0.0
16/07:00am 15.9 11.1 -2.6 28 7.7 ESE 13 17 7 9 1017.9 - 0.0
16/06:30am 15.8 11.1 -2.0 29 7.5 ESE 13 19 7 10 1017.7 - 0.0
16/06:00am 15.8 11.1 -1.6 30 7.4 SE 13 17 7 9 1017.7 1015.3 0.0
16/05:30am 16.1 10.6 -2.2 28 7.7 SE 17 20 9 11 1017.0 - 0.0
16/05:00am 16.6 10.7 -2.4 27 8.0 ESE 19 24 10 13 1016.9 - 0.0
16/04:30am 17.5 11.4 -2.6 25 8.5 E 20 26 11 14 1017.0 - 0.0
16/04:00am 16.4 10.5 -2.4 27 7.9 ESE 19 24 10 13 1017.2 - 0.0
16/03:30am 16.9 10.4 -2.2 27 8.1 ESE 22 28 12 15 1017.4 - 0.0
16/03:00am 16.9 11.1 -1.4 28 7.9 ESE 19 22 10 12 1017.6 1015.2 0.0
16/02:30am 17.2 11.2 -1.2 28 8.0 ESE 20 24 11 13 1017.7 - 0.0
16/02:00am 16.7 11.8 -0.3 31 7.5 ESE 15 19 8 10 1018.0 - 0.0
16/01:30am 18.0 12.3 -0.5 28 8.2 SE 19 22 10 12 1018.3 - 0.0
16/01:00am 18.3 13.8 -0.3 28 8.3 SE 13 15 7 8 1018.6 - 0.0
16/12:30am 19.2 13.9 -0.8 26 8.9 ESE 17 20 9 11 1018.7 - 0.0
16/12:00am 19.5 15.0 -0.6 26 9.0 SE 13 17 7 9 1018.8 1016.5 0.0
 
Date/Time
CST
Temp
°C
App
Temp
°C
Dew
Point
Rel
Hum
%
Delta-T
°C
Wind Press
QNH
hPa
Press
MSL
hPa
Rain
since 9 am
mm
Dir
 
Spd
km/h
Gust
km/h
Spd
kts
Gust
kts
15/11:30pm 20.1 16.0 -0.5 25 9.3 ESE 11 15 6 8 1018.8 - 0.0
15/11:00pm 20.8 16.2 -1.0 23 9.8 SSE 13 19 7 10 1018.8 - 0.0
15/10:30pm 21.8 16.2 -2.5 19 10.7 SSE 17 24 9 13 1018.8 - 0.0
15/10:00pm 22.4 16.3 -3.7 17 11.3 SSE 19 24 10 13 1018.7 - 0.0
15/09:30pm 21.8 16.3 -5.8 15 11.4 S 15 17 8 9 1018.6 - 0.0
15/09:00pm 21.9 16.8 -5.0 16 11.3 S 13 17 7 9 1018.3 1016.0 0.0
15/08:30pm 23.6 18.5 -5.5 14 12.3 S 13 17 7 9 1018.1 - 0.0
15/08:00pm 23.6 18.4 -6.6 13 12.5 S 13 17 7 9 1017.7 - 0.0
15/07:30pm 25.3 20.8 -6.5 11 13.4 S 9 11 5 6 1017.2 - 0.0

Other Formats:

Comma delimited format used in spreadsheet applications
http://www.bom.gov.au/fwo/IDD60801/IDD60801.94461.axf

JavaScript Object Notation format (JSON) in row-major order
http://www.bom.gov.au/fwo/IDD60801/IDD60801.94461.json